sensor_id;sensor_type;location;lat;lon;timestamp;P1;durP1;ratioP1;P2;durP2;ratioP2
59938;SDS011;45801;51.810;19.444;2024-01-15T00:01:12;15.70;;;9.30;;
59938;SDS011;45801;51.810;19.444;2024-01-15T00:04:05;16.50;;;9.70;;
59938;SDS011;45801;51.810;19.444;2024-01-15T00:06:31;17.60;;;9.80;;
59938;SDS011;45801;51.810;19.444;2024-01-15T00:08:59;18.60;;;10.00;;
59938;SDS011;45801;51.810;19.444;2024-01-15T00:11:26;16.10;;;9.90;;
59938;SDS011;45801;51.810;19.444;2024-01-15T00:13:53;14.40;;;9.60;;
59938;SDS011;45801;51.810;19.444;2024-01-15T00:16:19;17.30;;;10.30;;
59938;SDS011;45801;51.810;19.444;2024-01-15T00:18:46;15.90;;;9.50;;
59938;SDS011;45801;51.810;19.444;2024-01-15T00:21:12;16.70;;;10.20;;
59938;SDS011;45801;51.810;19.444;2024-01-15T00:23:42;16.90;;;10.00;;
59938;SDS011;45801;51.810;19.444;2024-01-15T00:26:10;20.40;;;11.00;;
59938;SDS011;45801;51.810;19.444;2024-01-15T00:28:38;18.50;;;10.60;;
59938;SDS011;45801;51.810;19.444;2024-01-15T00:31:05;18.20;;;10.40;;
59938;SDS011;45801;51.810;19.444;2024-01-15T00:33:32;20.30;;;12.10;;
59938;SDS011;45801;51.810;19.444;2024-01-15T00:35:58;17.70;;;10.20;;
59938;SDS011;45801;51.810;19.444;2024-01-15T00:38:25;16.20;;;9.20;;
59938;SDS011;45801;51.810;19.444;2024-01-15T00:40:51;16.50;;;9.80;;
59938;SDS011;45801;51.810;19.444;2024-01-15T00:43:18;16.70;;;9.40;;
59938;SDS011;45801;51.810;19.444;2024-01-15T00:45:45;16.70;;;9.40;;
59938;SDS011;45801;51.810;19.444;2024-01-15T00:48:12;17.50;;;10.70;;
59938;SDS011;45801;51.810;19.444;2024-01-15T00:50:38;15.40;;;8.20;;
59938;SDS011;45801;51.810;19.444;2024-01-15T00:53:05;16.30;;;8.20;;
59938;SDS011;45801;51.810;19.444;2024-01-15T00:55:32;18.20;;;9.00;;
59938;SDS011;45801;51.810;19.444;2024-01-15T00:57:58;18.10;;;9.40;;
59938;SDS011;45801;51.810;19.444;2024-01-15T01:00:25;16.50;;;9.70;;
59938;SDS011;45801;51.810;19.444;2024-01-15T01:02:52;19.40;;;9.60;;
59938;SDS011;45801;51.810;19.444;2024-01-15T01:05:18;16.60;;;9.80;;
59938;SDS011;45801;51.810;19.444;2024-01-15T01:07:45;17.60;;;9.20;;
59938;SDS011;45801;51.810;19.444;2024-01-15T01:10:12;16.50;;;9.90;;
59938;SDS011;45801;51.810;19.444;2024-01-15T01:12:38;16.80;;;11.10;;
59938;SDS011;45801;51.810;19.444;2024-01-15T01:15:05;18.00;;;10.30;;
59938;SDS011;45801;51.810;19.444;2024-01-15T01:17:32;16.30;;;9.90;;
59938;SDS011;45801;51.810;19.444;2024-01-15T01:19:59;19.80;;;10.90;;
59938;SDS011;45801;51.810;19.444;2024-01-15T01:22:25;16.00;;;9.10;;
59938;SDS011;45801;51.810;19.444;2024-01-15T01:24:51;19.10;;;9.60;;
59938;SDS011;45801;51.810;19.444;2024-01-15T01:27:18;16.30;;;9.60;;
59938;SDS011;45801;51.810;19.444;2024-01-15T01:29:44;16.80;;;10.10;;
59938;SDS011;45801;51.810;19.444;2024-01-15T01:32:11;16.70;;;9.90;;
59938;SDS011;45801;51.810;19.444;2024-01-15T01:34:41;14.80;;;8.90;;
59938;SDS011;45801;51.810;19.444;2024-01-15T01:39:40;14.70;;;8.40;;
59938;SDS011;45801;51.810;19.444;2024-01-15T01:42:07;15.20;;;8.80;;
59938;SDS011;45801;51.810;19.444;2024-01-15T01:44:34;14.80;;;8.10;;
59938;SDS011;45801;51.810;19.444;2024-01-15T01:47:01;16.60;;;9.80;;
59938;SDS011;45801;51.810;19.444;2024-01-15T01:49:27;18.20;;;9.30;;
59938;SDS011;45801;51.810;19.444;2024-01-15T01:51:57;18.10;;;10.00;;
59938;SDS011;45801;51.810;19.444;2024-01-15T01:54:26;14.40;;;7.90;;
59938;SDS011;45801;51.810;19.444;2024-01-15T01:56:57;19.30;;;10.50;;
59938;SDS011;45801;51.810;19.444;2024-01-15T01:59:27;17.60;;;9.60;;
59938;SDS011;45801;51.810;19.444;2024-01-15T02:01:54;17.90;;;9.30;;
59938;SDS011;45801;51.810;19.444;2024-01-15T02:04:24;17.50;;;8.70;;
59938;SDS011;45801;51.810;19.444;2024-01-15T02:06:52;17.20;;;10.00;;
59938;SDS011;45801;51.810;19.444;2024-01-15T02:09:19;15.40;;;8.40;;
59938;SDS011;45801;51.810;19.444;2024-01-15T02:11:48;16.10;;;8.80;;
59938;SDS011;45801;51.810;19.444;2024-01-15T02:14:15;17.50;;;11.20;;
59938;SDS011;45801;51.810;19.444;2024-01-15T02:16:42;19.80;;;9.70;;
59938;SDS011;45801;51.810;19.444;2024-01-15T02:19:14;16.90;;;10.40;;
59938;SDS011;45801;51.810;19.444;2024-01-15T02:21:43;17.60;;;9.10;;
59938;SDS011;45801;51.810;19.444;2024-01-15T02:24:10;16.80;;;9.50;;
59938;SDS011;45801;51.810;19.444;2024-01-15T02:26:37;17.60;;;9.50;;
59938;SDS011;45801;51.810;19.444;2024-01-15T02:29:05;16.70;;;8.90;;
59938;SDS011;45801;51.810;19.444;2024-01-15T02:31:35;16.80;;;8.50;;
59938;SDS011;45801;51.810;19.444;2024-01-15T02:34:02;15.70;;;9.30;;
59938;SDS011;45801;51.810;19.444;2024-01-15T02:36:29;15.50;;;8.70;;
59938;SDS011;45801;51.810;19.444;2024-01-15T02:38:56;15.90;;;8.80;;
59938;SDS011;45801;51.810;19.444;2024-01-15T02:41:22;16.20;;;8.80;;
59938;SDS011;45801;51.810;19.444;2024-01-15T02:43:49;16.20;;;9.20;;
59938;SDS011;45801;51.810;19.444;2024-01-15T02:46:15;14.90;;;8.90;;
59938;SDS011;45801;51.810;19.444;2024-01-15T02:48:42;14.40;;;7.60;;
59938;SDS011;45801;51.810;19.444;2024-01-15T02:51:09;17.20;;;9.00;;
59938;SDS011;45801;51.810;19.444;2024-01-15T02:53:36;18.00;;;10.00;;
59938;SDS011;45801;51.810;19.444;2024-01-15T02:56:03;15.60;;;9.00;;
59938;SDS011;45801;51.810;19.444;2024-01-15T02:58:30;15.70;;;9.00;;
59938;SDS011;45801;51.810;19.444;2024-01-15T03:00:57;16.00;;;8.70;;
59938;SDS011;45801;51.810;19.444;2024-01-15T03:03:23;15.60;;;9.40;;
59938;SDS011;45801;51.810;19.444;2024-01-15T03:05:50;15.30;;;9.00;;
59938;SDS011;45801;51.810;19.444;2024-01-15T03:08:16;15.50;;;8.90;;
59938;SDS011;45801;51.810;19.444;2024-01-15T03:10:43;17.90;;;8.70;;
59938;SDS011;45801;51.810;19.444;2024-01-15T03:13:10;15.30;;;8.60;;
59938;SDS011;45801;51.810;19.444;2024-01-15T03:15:36;17.20;;;10.10;;
59938;SDS011;45801;51.810;19.444;2024-01-15T03:18:03;13.40;;;7.50;;
59938;SDS011;45801;51.810;19.444;2024-01-15T03:20:30;15.30;;;8.30;;
59938;SDS011;45801;51.810;19.444;2024-01-15T03:22:56;13.00;;;7.80;;
59938;SDS011;45801;51.810;19.444;2024-01-15T03:25:23;15.40;;;9.30;;
59938;SDS011;45801;51.810;19.444;2024-01-15T03:27:49;16.60;;;9.30;;
59938;SDS011;45801;51.810;19.444;2024-01-15T03:30:16;17.00;;;8.90;;
59938;SDS011;45801;51.810;19.444;2024-01-15T03:32:42;14.60;;;8.50;;
59938;SDS011;45801;51.810;19.444;2024-01-15T03:35:09;15.00;;;7.90;;
59938;SDS011;45801;51.810;19.444;2024-01-15T03:37:35;16.30;;;9.00;;
59938;SDS011;45801;51.810;19.444;2024-01-15T03:40:02;14.30;;;9.30;;
59938;SDS011;45801;51.810;19.444;2024-01-15T03:42:29;16.10;;;9.30;;
59938;SDS011;45801;51.810;19.444;2024-01-15T03:44:57;15.30;;;9.00;;
59938;SDS011;45801;51.810;19.444;2024-01-15T03:47:23;16.00;;;10.40;;
59938;SDS011;45801;51.810;19.444;2024-01-15T03:49:50;15.70;;;8.90;;
59938;SDS011;45801;51.810;19.444;2024-01-15T03:52:16;16.00;;;9.30;;
59938;SDS011;45801;51.810;19.444;2024-01-15T03:54:43;14.90;;;9.00;;
59938;SDS011;45801;51.810;19.444;2024-01-15T03:57:10;15.30;;;8.70;;
59938;SDS011;45801;51.810;19.444;2024-01-15T03:59:37;15.70;;;9.20;;
59938;SDS011;45801;51.810;19.444;2024-01-15T04:02:04;15.20;;;9.00;;
59938;SDS011;45801;51.810;19.444;2024-01-15T04:04:31;15.50;;;9.40;;
59938;SDS011;45801;51.810;19.444;2024-01-15T04:06:57;15.50;;;9.90;;
59938;SDS011;45801;51.810;19.444;2024-01-15T04:09:24;15.10;;;8.30;;
59938;SDS011;45801;51.810;19.444;2024-01-15T04:11:50;16.50;;;8.70;;
59938;SDS011;45801;51.810;19.444;2024-01-15T04:14:17;15.20;;;9.00;;
59938;SDS011;45801;51.810;19.444;2024-01-15T04:16:44;18.10;;;10.70;;
59938;SDS011;45801;51.810;19.444;2024-01-15T04:19:10;17.30;;;9.90;;
59938;SDS011;45801;51.810;19.444;2024-01-15T04:21:37;14.20;;;9.40;;
59938;SDS011;45801;51.810;19.444;2024-01-15T04:24:03;16.40;;;9.70;;
59938;SDS011;45801;51.810;19.444;2024-01-15T04:26:30;16.50;;;8.90;;
59938;SDS011;45801;51.810;19.444;2024-01-15T04:28:57;14.80;;;9.20;;
59938;SDS011;45801;51.810;19.444;2024-01-15T04:31:25;15.40;;;9.00;;
59938;SDS011;45801;51.810;19.444;2024-01-15T04:33:53;13.80;;;8.20;;
59938;SDS011;45801;51.810;19.444;2024-01-15T04:36:19;13.60;;;8.20;;
59938;SDS011;45801;51.810;19.444;2024-01-15T04:38:46;16.90;;;8.60;;
59938;SDS011;45801;51.810;19.444;2024-01-15T04:41:13;15.30;;;10.00;;
59938;SDS011;45801;51.810;19.444;2024-01-15T04:43:40;16.90;;;8.50;;
59938;SDS011;45801;51.810;19.444;2024-01-15T04:46:07;13.30;;;8.20;;
59938;SDS011;45801;51.810;19.444;2024-01-15T04:48:33;16.50;;;10.10;;
59938;SDS011;45801;51.810;19.444;2024-01-15T04:51:00;15.00;;;8.50;;
59938;SDS011;45801;51.810;19.444;2024-01-15T04:53:29;17.90;;;8.80;;
59938;SDS011;45801;51.810;19.444;2024-01-15T04:55:56;14.40;;;8.70;;
59938;SDS011;45801;51.810;19.444;2024-01-15T04:58:22;12.50;;;7.50;;
59938;SDS011;45801;51.810;19.444;2024-01-15T05:00:52;16.30;;;8.60;;
59938;SDS011;45801;51.810;19.444;2024-01-15T05:03:18;16.80;;;9.60;;
59938;SDS011;45801;51.810;19.444;2024-01-15T05:05:45;14.80;;;9.30;;
59938;SDS011;45801;51.810;19.444;2024-01-15T05:08:12;15.90;;;10.40;;
59938;SDS011;45801;51.810;19.444;2024-01-15T05:10:38;16.20;;;9.10;;
59938;SDS011;45801;51.810;19.444;2024-01-15T05:13:05;16.40;;;9.10;;
59938;SDS011;45801;51.810;19.444;2024-01-15T05:15:31;15.80;;;9.80;;
59938;SDS011;45801;51.810;19.444;2024-01-15T05:17:58;15.10;;;9.20;;
59938;SDS011;45801;51.810;19.444;2024-01-15T05:20:24;14.30;;;8.90;;
59938;SDS011;45801;51.810;19.444;2024-01-15T05:22:51;15.30;;;9.70;;
59938;SDS011;45801;51.810;19.444;2024-01-15T05:25:18;13.40;;;8.30;;
59938;SDS011;45801;51.810;19.444;2024-01-15T05:27:45;15.90;;;9.20;;
59938;SDS011;45801;51.810;19.444;2024-01-15T05:30:12;15.00;;;8.50;;
59938;SDS011;45801;51.810;19.444;2024-01-15T05:32:38;13.40;;;7.80;;
59938;SDS011;45801;51.810;19.444;2024-01-15T05:35:05;13.30;;;7.30;;
59938;SDS011;45801;51.810;19.444;2024-01-15T05:37:32;16.30;;;8.70;;
59938;SDS011;45801;51.810;19.444;2024-01-15T05:39:59;15.60;;;8.80;;
59938;SDS011;45801;51.810;19.444;2024-01-15T05:42:25;17.10;;;9.20;;
59938;SDS011;45801;51.810;19.444;2024-01-15T05:44:52;17.80;;;9.80;;
59938;SDS011;45801;51.810;19.444;2024-01-15T05:47:19;16.10;;;9.00;;
59938;SDS011;45801;51.810;19.444;2024-01-15T05:49:45;15.80;;;9.00;;
59938;SDS011;45801;51.810;19.444;2024-01-15T05:52:12;16.30;;;9.80;;
59938;SDS011;45801;51.810;19.444;2024-01-15T05:54:39;15.70;;;9.90;;
59938;SDS011;45801;51.810;19.444;2024-01-15T05:57:05;14.80;;;8.60;;
59938;SDS011;45801;51.810;19.444;2024-01-15T05:59:32;15.10;;;8.70;;
59938;SDS011;45801;51.810;19.444;2024-01-15T06:02:00;17.20;;;9.80;;
59938;SDS011;45801;51.810;19.444;2024-01-15T06:04:27;18.00;;;9.50;;
59938;SDS011;45801;51.810;19.444;2024-01-15T06:06:53;15.20;;;8.80;;
59938;SDS011;45801;51.810;19.444;2024-01-15T06:09:20;14.40;;;8.20;;
59938;SDS011;45801;51.810;19.444;2024-01-15T06:11:47;16.00;;;9.30;;
59938;SDS011;45801;51.810;19.444;2024-01-15T06:14:13;18.10;;;9.30;;
59938;SDS011;45801;51.810;19.444;2024-01-15T06:16:40;16.90;;;9.00;;
59938;SDS011;45801;51.810;19.444;2024-01-15T06:19:06;16.70;;;9.90;;
59938;SDS011;45801;51.810;19.444;2024-01-15T06:21:33;15.60;;;9.40;;
59938;SDS011;45801;51.810;19.444;2024-01-15T06:24:00;15.90;;;9.40;;
59938;SDS011;45801;51.810;19.444;2024-01-15T06:26:27;15.40;;;9.00;;
59938;SDS011;45801;51.810;19.444;2024-01-15T06:28:53;15.20;;;8.50;;
59938;SDS011;45801;51.810;19.444;2024-01-15T06:31:20;16.70;;;9.20;;
59938;SDS011;45801;51.810;19.444;2024-01-15T06:33:46;16.70;;;9.70;;
59938;SDS011;45801;51.810;19.444;2024-01-15T06:36:14;16.30;;;9.10;;
59938;SDS011;45801;51.810;19.444;2024-01-15T06:38:45;17.80;;;10.60;;
59938;SDS011;45801;51.810;19.444;2024-01-15T06:41:11;15.70;;;10.20;;
59938;SDS011;45801;51.810;19.444;2024-01-15T06:43:39;15.90;;;8.60;;
59938;SDS011;45801;51.810;19.444;2024-01-15T06:46:05;16.20;;;9.50;;
59938;SDS011;45801;51.810;19.444;2024-01-15T06:48:32;17.40;;;10.20;;
59938;SDS011;45801;51.810;19.444;2024-01-15T06:50:58;16.00;;;9.90;;
59938;SDS011;45801;51.810;19.444;2024-01-15T06:53:25;15.30;;;9.00;;
59938;SDS011;45801;51.810;19.444;2024-01-15T06:55:52;15.20;;;8.30;;
59938;SDS011;45801;51.810;19.444;2024-01-15T06:58:18;14.40;;;8.90;;
59938;SDS011;45801;51.810;19.444;2024-01-15T07:00:45;13.70;;;8.50;;
59938;SDS011;45801;51.810;19.444;2024-01-15T07:03:11;14.30;;;9.30;;
59938;SDS011;45801;51.810;19.444;2024-01-15T07:05:38;15.30;;;9.00;;
59938;SDS011;45801;51.810;19.444;2024-01-15T07:08:04;14.10;;;8.20;;
59938;SDS011;45801;51.810;19.444;2024-01-15T07:10:31;11.40;;;6.40;;
59938;SDS011;45801;51.810;19.444;2024-01-15T07:12:58;15.40;;;8.00;;
59938;SDS011;45801;51.810;19.444;2024-01-15T07:15:24;15.10;;;7.90;;
59938;SDS011;45801;51.810;19.444;2024-01-15T07:17:51;12.90;;;7.20;;
59938;SDS011;45801;51.810;19.444;2024-01-15T07:20:17;10.60;;;6.40;;
59938;SDS011;45801;51.810;19.444;2024-01-15T07:22:45;14.10;;;7.60;;
59938;SDS011;45801;51.810;19.444;2024-01-15T07:25:12;15.10;;;8.20;;
59938;SDS011;45801;51.810;19.444;2024-01-15T07:27:39;12.70;;;7.20;;
59938;SDS011;45801;51.810;19.444;2024-01-15T07:30:06;15.20;;;7.00;;
59938;SDS011;45801;51.810;19.444;2024-01-15T07:32:33;12.20;;;6.70;;
59938;SDS011;45801;51.810;19.444;2024-01-15T07:34:59;13.90;;;8.00;;
59938;SDS011;45801;51.810;19.444;2024-01-15T07:37:26;11.60;;;6.70;;
59938;SDS011;45801;51.810;19.444;2024-01-15T07:39:53;15.60;;;7.30;;
59938;SDS011;45801;51.810;19.444;2024-01-15T07:42:19;12.20;;;5.40;;
59938;SDS011;45801;51.810;19.444;2024-01-15T07:44:46;13.00;;;6.40;;
59938;SDS011;45801;51.810;19.444;2024-01-15T07:47:14;13.80;;;7.60;;
59938;SDS011;45801;51.810;19.444;2024-01-15T07:49:41;13.70;;;6.20;;
59938;SDS011;45801;51.810;19.444;2024-01-15T07:52:07;10.00;;;5.30;;
59938;SDS011;45801;51.810;19.444;2024-01-15T07:54:35;11.00;;;6.20;;
59938;SDS011;45801;51.810;19.444;2024-01-15T07:57:02;12.10;;;6.10;;
59938;SDS011;45801;51.810;19.444;2024-01-15T07:59:32;11.30;;;5.70;;
59938;SDS011;45801;51.810;19.444;2024-01-15T08:01:59;10.60;;;5.90;;
59938;SDS011;45801;51.810;19.444;2024-01-15T08:04:26;9.20;;;4.60;;
59938;SDS011;45801;51.810;19.444;2024-01-15T08:06:52;10.50;;;5.90;;
59938;SDS011;45801;51.810;19.444;2024-01-15T08:09:19;12.40;;;5.80;;
59938;SDS011;45801;51.810;19.444;2024-01-15T08:11:47;12.40;;;5.80;;
59938;SDS011;45801;51.810;19.444;2024-01-15T08:14:13;11.60;;;4.90;;
59938;SDS011;45801;51.810;19.444;2024-01-15T08:16:40;13.10;;;6.20;;
59938;SDS011;45801;51.810;19.444;2024-01-15T08:19:07;12.10;;;6.40;;
59938;SDS011;45801;51.810;19.444;2024-01-15T08:21:33;12.70;;;6.90;;
59938;SDS011;45801;51.810;19.444;2024-01-15T08:24:00;11.20;;;5.40;;
59938;SDS011;45801;51.810;19.444;2024-01-15T08:26:28;13.10;;;7.10;;
59938;SDS011;45801;51.810;19.444;2024-01-15T08:28:55;12.20;;;5.70;;
59938;SDS011;45801;51.810;19.444;2024-01-15T08:31:22;13.60;;;6.10;;
59938;SDS011;45801;51.810;19.444;2024-01-15T08:33:49;12.30;;;5.80;;
59938;SDS011;45801;51.810;19.444;2024-01-15T08:36:17;12.60;;;6.20;;
59938;SDS011;45801;51.810;19.444;2024-01-15T08:38:45;10.30;;;5.40;;
59938;SDS011;45801;51.810;19.444;2024-01-15T08:41:13;11.20;;;6.40;;
59938;SDS011;45801;51.810;19.444;2024-01-15T08:43:40;14.10;;;5.80;;
59938;SDS011;45801;51.810;19.444;2024-01-15T08:46:06;11.90;;;6.50;;
59938;SDS011;45801;51.810;19.444;2024-01-15T08:48:33;11.30;;;5.30;;
59938;SDS011;45801;51.810;19.444;2024-01-15T08:51:00;12.10;;;5.80;;
59938;SDS011;45801;51.810;19.444;2024-01-15T08:53:26;12.20;;;5.90;;
59938;SDS011;45801;51.810;19.444;2024-01-15T08:55:53;11.70;;;6.30;;
59938;SDS011;45801;51.810;19.444;2024-01-15T08:58:21;12.10;;;5.80;;
59938;SDS011;45801;51.810;19.444;2024-01-15T09:00:50;12.90;;;6.50;;
59938;SDS011;45801;51.810;19.444;2024-01-15T09:03:17;12.30;;;6.80;;
59938;SDS011;45801;51.810;19.444;2024-01-15T09:05:44;12.40;;;6.60;;
59938;SDS011;45801;51.810;19.444;2024-01-15T09:08:11;15.40;;;6.40;;
59938;SDS011;45801;51.810;19.444;2024-01-15T09:10:38;14.00;;;7.40;;
59938;SDS011;45801;51.810;19.444;2024-01-15T09:13:04;14.30;;;6.20;;
59938;SDS011;45801;51.810;19.444;2024-01-15T09:15:31;13.90;;;7.20;;
59938;SDS011;45801;51.810;19.444;2024-01-15T09:17:58;14.30;;;7.10;;
59938;SDS011;45801;51.810;19.444;2024-01-15T09:20:25;13.50;;;7.40;;
59938;SDS011;45801;51.810;19.444;2024-01-15T09:22:53;12.80;;;7.30;;
59938;SDS011;45801;51.810;19.444;2024-01-15T09:25:20;13.90;;;6.90;;
59938;SDS011;45801;51.810;19.444;2024-01-15T09:27:46;15.10;;;9.00;;
59938;SDS011;45801;51.810;19.444;2024-01-15T09:30:13;13.40;;;7.10;;
59938;SDS011;45801;51.810;19.444;2024-01-15T09:32:40;12.90;;;6.60;;
59938;SDS011;45801;51.810;19.444;2024-01-15T09:35:07;13.60;;;7.10;;
59938;SDS011;45801;51.810;19.444;2024-01-15T09:37:34;16.80;;;7.90;;
59938;SDS011;45801;51.810;19.444;2024-01-15T09:40:00;16.40;;;8.60;;
59938;SDS011;45801;51.810;19.444;2024-01-15T09:42:27;13.50;;;7.60;;
59938;SDS011;45801;51.810;19.444;2024-01-15T09:44:54;14.10;;;6.90;;
59938;SDS011;45801;51.810;19.444;2024-01-15T09:47:21;15.10;;;8.00;;
59938;SDS011;45801;51.810;19.444;2024-01-15T09:49:49;13.70;;;7.80;;
59938;SDS011;45801;51.810;19.444;2024-01-15T09:52:15;15.00;;;7.50;;
59938;SDS011;45801;51.810;19.444;2024-01-15T09:54:43;11.50;;;6.10;;
59938;SDS011;45801;51.810;19.444;2024-01-15T09:57:11;14.10;;;7.70;;
59938;SDS011;45801;51.810;19.444;2024-01-15T09:59:37;14.40;;;7.60;;
59938;SDS011;45801;51.810;19.444;2024-01-15T10:02:05;13.80;;;6.90;;
59938;SDS011;45801;51.810;19.444;2024-01-15T10:04:33;16.60;;;9.00;;
59938;SDS011;45801;51.810;19.444;2024-01-15T10:07:00;14.10;;;6.80;;
59938;SDS011;45801;51.810;19.444;2024-01-15T10:09:27;17.20;;;8.00;;
59938;SDS011;45801;51.810;19.444;2024-01-15T10:11:54;14.90;;;6.90;;
59938;SDS011;45801;51.810;19.444;2024-01-15T10:14:20;11.30;;;6.60;;
59938;SDS011;45801;51.810;19.444;2024-01-15T10:16:47;12.10;;;5.90;;
59938;SDS011;45801;51.810;19.444;2024-01-15T10:19:13;13.10;;;6.20;;
59938;SDS011;45801;51.810;19.444;2024-01-15T10:21:40;11.90;;;6.10;;
59938;SDS011;45801;51.810;19.444;2024-01-15T10:24:07;15.00;;;7.20;;
59938;SDS011;45801;51.810;19.444;2024-01-15T10:26:34;11.00;;;6.00;;
59938;SDS011;45801;51.810;19.444;2024-01-15T10:29:01;12.90;;;7.10;;
59938;SDS011;45801;51.810;19.444;2024-01-15T10:31:28;15.70;;;7.40;;
59938;SDS011;45801;51.810;19.444;2024-01-15T10:33:58;12.60;;;6.20;;
59938;SDS011;45801;51.810;19.444;2024-01-15T10:36:36;15.70;;;8.10;;
59938;SDS011;45801;51.810;19.444;2024-01-15T10:39:06;17.10;;;7.20;;
59938;SDS011;45801;51.810;19.444;2024-01-15T10:41:34;16.90;;;8.40;;
59938;SDS011;45801;51.810;19.444;2024-01-15T10:44:00;14.20;;;8.00;;
59938;SDS011;45801;51.810;19.444;2024-01-15T10:46:27;15.40;;;7.20;;
59938;SDS011;45801;51.810;19.444;2024-01-15T10:48:55;13.30;;;6.40;;
59938;SDS011;45801;51.810;19.444;2024-01-15T10:51:22;13.50;;;6.50;;
59938;SDS011;45801;51.810;19.444;2024-01-15T10:53:49;12.10;;;6.00;;
59938;SDS011;45801;51.810;19.444;2024-01-15T10:56:17;12.60;;;6.70;;
59938;SDS011;45801;51.810;19.444;2024-01-15T10:58:44;13.40;;;6.10;;
59938;SDS011;45801;51.810;19.444;2024-01-15T11:01:11;11.90;;;6.00;;
59938;SDS011;45801;51.810;19.444;2024-01-15T11:03:39;13.20;;;6.90;;
59938;SDS011;45801;51.810;19.444;2024-01-15T11:06:27;13.50;;;7.80;;
59938;SDS011;45801;51.810;19.444;2024-01-15T11:08:55;10.70;;;6.00;;
59938;SDS011;45801;51.810;19.444;2024-01-15T11:11:22;13.10;;;6.50;;
59938;SDS011;45801;51.810;19.444;2024-01-15T11:13:49;12.30;;;6.60;;
59938;SDS011;45801;51.810;19.444;2024-01-15T11:16:18;12.90;;;5.70;;
59938;SDS011;45801;51.810;19.444;2024-01-15T11:21:24;12.30;;;5.50;;
59938;SDS011;45801;51.810;19.444;2024-01-15T11:23:58;16.20;;;6.50;;
59938;SDS011;45801;51.810;19.444;2024-01-15T11:28:55;17.80;;;7.40;;
59938;SDS011;45801;51.810;19.444;2024-01-15T11:31:27;14.10;;;6.30;;
59938;SDS011;45801;51.810;19.444;2024-01-15T11:33:54;14.30;;;6.30;;
59938;SDS011;45801;51.810;19.444;2024-01-15T11:36:52;12.40;;;6.00;;
59938;SDS011;45801;51.810;19.444;2024-01-15T11:41:56;11.90;;;6.10;;
59938;SDS011;45801;51.810;19.444;2024-01-15T11:44:24;12.80;;;5.90;;
59938;SDS011;45801;51.810;19.444;2024-01-15T11:46:58;11.30;;;4.50;;
59938;SDS011;45801;51.810;19.444;2024-01-15T11:52:33;11.60;;;5.20;;
59938;SDS011;45801;51.810;19.444;2024-01-15T11:55:21;12.00;;;5.70;;
59938;SDS011;45801;51.810;19.444;2024-01-15T11:57:55;11.90;;;5.80;;
59938;SDS011;45801;51.810;19.444;2024-01-15T12:00:24;12.10;;;5.90;;
59938;SDS011;45801;51.810;19.444;2024-01-15T12:02:50;13.50;;;5.50;;
59938;SDS011;45801;51.810;19.444;2024-01-15T12:05:18;12.70;;;6.30;;
59938;SDS011;45801;51.810;19.444;2024-01-15T12:07:49;14.00;;;6.10;;
59938;SDS011;45801;51.810;19.444;2024-01-15T12:10:17;11.50;;;5.50;;
59938;SDS011;45801;51.810;19.444;2024-01-15T12:15:17;12.30;;;6.00;;
59938;SDS011;45801;51.810;19.444;2024-01-15T12:17:44;13.20;;;6.00;;
59938;SDS011;45801;51.810;19.444;2024-01-15T12:20:11;12.70;;;6.00;;
59938;SDS011;45801;51.810;19.444;2024-01-15T12:22:38;10.90;;;5.70;;
59938;SDS011;45801;51.810;19.444;2024-01-15T12:25:05;13.40;;;6.10;;
59938;SDS011;45801;51.810;19.444;2024-01-15T12:27:32;11.20;;;7.20;;
59938;SDS011;45801;51.810;19.444;2024-01-15T12:30:12;14.90;;;6.80;;
59938;SDS011;45801;51.810;19.444;2024-01-15T12:32:40;12.40;;;5.70;;
59938;SDS011;45801;51.810;19.444;2024-01-15T12:35:08;12.10;;;5.90;;
59938;SDS011;45801;51.810;19.444;2024-01-15T12:37:36;13.80;;;7.20;;
59938;SDS011;45801;51.810;19.444;2024-01-15T12:40:04;14.20;;;5.90;;
59938;SDS011;45801;51.810;19.444;2024-01-15T12:42:33;13.10;;;5.90;;
59938;SDS011;45801;51.810;19.444;2024-01-15T12:45:02;12.40;;;6.00;;
59938;SDS011;45801;51.810;19.444;2024-01-15T12:47:30;12.30;;;5.70;;
59938;SDS011;45801;51.810;19.444;2024-01-15T12:49:58;15.60;;;7.00;;
59938;SDS011;45801;51.810;19.444;2024-01-15T12:52:28;13.80;;;6.70;;
59938;SDS011;45801;51.810;19.444;2024-01-15T12:54:56;13.50;;;6.10;;
59938;SDS011;45801;51.810;19.444;2024-01-15T12:57:22;14.10;;;7.50;;
59938;SDS011;45801;51.810;19.444;2024-01-15T12:59:49;13.10;;;6.20;;
59938;SDS011;45801;51.810;19.444;2024-01-15T13:02:18;12.40;;;6.10;;
59938;SDS011;45801;51.810;19.444;2024-01-15T13:04:45;13.90;;;6.20;;
59938;SDS011;45801;51.810;19.444;2024-01-15T13:07:12;13.80;;;7.00;;
59938;SDS011;45801;51.810;19.444;2024-01-15T13:09:38;15.10;;;7.10;;
59938;SDS011;45801;51.810;19.444;2024-01-15T13:12:05;14.50;;;7.10;;
59938;SDS011;45801;51.810;19.444;2024-01-15T13:14:32;14.00;;;6.30;;
59938;SDS011;45801;51.810;19.444;2024-01-15T13:16:58;13.20;;;6.00;;
59938;SDS011;45801;51.810;19.444;2024-01-15T13:19:25;14.10;;;6.30;;
59938;SDS011;45801;51.810;19.444;2024-01-15T13:21:52;14.10;;;6.70;;
59938;SDS011;45801;51.810;19.444;2024-01-15T13:24:21;19.40;;;8.70;;
59938;SDS011;45801;51.810;19.444;2024-01-15T13:26:48;17.90;;;7.60;;
59938;SDS011;45801;51.810;19.444;2024-01-15T13:29:15;17.50;;;7.20;;
59938;SDS011;45801;51.810;19.444;2024-01-15T13:31:42;15.80;;;7.10;;
59938;SDS011;45801;51.810;19.444;2024-01-15T13:34:08;14.00;;;6.30;;
59938;SDS011;45801;51.810;19.444;2024-01-15T13:36:35;15.70;;;6.80;;
59938;SDS011;45801;51.810;19.444;2024-01-15T13:39:02;14.10;;;6.70;;
59938;SDS011;45801;51.810;19.444;2024-01-15T13:41:29;12.90;;;6.40;;
59938;SDS011;45801;51.810;19.444;2024-01-15T13:43:56;13.20;;;6.10;;
59938;SDS011;45801;51.810;19.444;2024-01-15T13:46:25;14.60;;;6.30;;
59938;SDS011;45801;51.810;19.444;2024-01-15T13:48:55;15.10;;;7.20;;
59938;SDS011;45801;51.810;19.444;2024-01-15T13:51:22;12.00;;;5.80;;
59938;SDS011;45801;51.810;19.444;2024-01-15T13:53:50;13.80;;;6.10;;
59938;SDS011;45801;51.810;19.444;2024-01-15T13:56:17;13.60;;;5.90;;
59938;SDS011;45801;51.810;19.444;2024-01-15T13:58:43;13.00;;;6.60;;
59938;SDS011;45801;51.810;19.444;2024-01-15T14:01:10;14.00;;;6.40;;
59938;SDS011;45801;51.810;19.444;2024-01-15T14:03:37;13.80;;;6.40;;
59938;SDS011;45801;51.810;19.444;2024-01-15T14:06:03;13.40;;;6.40;;
59938;SDS011;45801;51.810;19.444;2024-01-15T14:08:35;10.90;;;4.90;;
59938;SDS011;45801;51.810;19.444;2024-01-15T14:11:03;12.10;;;6.20;;
59938;SDS011;45801;51.810;19.444;2024-01-15T14:13:33;14.10;;;5.90;;
59938;SDS011;45801;51.810;19.444;2024-01-15T14:16:03;14.60;;;5.60;;
59938;SDS011;45801;51.810;19.444;2024-01-15T14:18:30;13.50;;;7.00;;
59938;SDS011;45801;51.810;19.444;2024-01-15T14:20:57;16.00;;;5.40;;
59938;SDS011;45801;51.810;19.444;2024-01-15T14:23:24;11.00;;;4.50;;
59938;SDS011;45801;51.810;19.444;2024-01-15T14:25:50;13.00;;;5.70;;
59938;SDS011;45801;51.810;19.444;2024-01-15T14:28:17;10.50;;;4.60;;
59938;SDS011;45801;51.810;19.444;2024-01-15T14:30:43;11.50;;;4.70;;
59938;SDS011;45801;51.810;19.444;2024-01-15T14:33:10;13.30;;;5.60;;
59938;SDS011;45801;51.810;19.444;2024-01-15T14:35:37;14.70;;;5.30;;
59938;SDS011;45801;51.810;19.444;2024-01-15T14:38:04;16.50;;;6.40;;